createdAt,value
2017-11-18T00:01:37.123Z,4.97
2017-11-18T00:04:05.279Z,7.87
2017-11-18T00:06:34.163Z,8.98
2017-11-18T00:09:02.320Z,6.00
2017-11-18T00:11:30.447Z,8.20
2017-11-18T00:13:58.598Z,6.97
2017-11-18T00:16:26.725Z,8.27
2017-11-18T00:18:54.867Z,8.15
2017-11-18T00:21:22.992Z,8.77
2017-11-18T00:23:51.142Z,5.62
2017-11-18T00:26:19.264Z,5.30
2017-11-18T00:28:47.396Z,6.45
2017-11-18T00:31:15.554Z,11.85
2017-11-18T00:33:43.679Z,5.53
2017-11-18T00:36:12.604Z,7.05
2017-11-18T00:38:40.736Z,9.68
2017-11-18T00:41:09.654Z,9.77
2017-11-18T00:43:37.798Z,14.02
2017-11-18T00:46:06.724Z,9.23
2017-11-18T00:48:34.851Z,8.82
2017-11-18T00:51:03.012Z,12.55
2017-11-18T00:53:31.129Z,8.35
2017-11-18T00:55:59.278Z,7.90
2017-11-18T00:58:27.409Z,10.38
2017-11-18T01:00:55.549Z,4.85
2017-11-18T01:03:23.683Z,5.70
2017-11-18T01:05:51.836Z,8.80
2017-11-18T01:08:19.994Z,8.73
2017-11-18T01:10:48.152Z,9.40
2017-11-18T01:13:16.281Z,14.05
2017-11-18T01:15:44.441Z,8.10
2017-11-18T01:18:12.576Z,8.18
2017-11-18T01:20:40.732Z,8.27
2017-11-18T01:23:09.627Z,8.23
2017-11-18T01:25:37.780Z,10.52
2017-11-18T01:28:06.688Z,8.27
2017-11-18T01:30:34.857Z,4.15
2017-11-18T01:33:03.749Z,9.18
2017-11-18T01:35:31.897Z,8.93
2017-11-18T01:38:00.037Z,5.70
2017-11-18T01:40:28.195Z,7.40
2017-11-18T01:42:56.315Z,7.05
2017-11-18T01:45:24.471Z,9.15
2017-11-18T01:47:52.596Z,5.70
2017-11-18T01:50:20.741Z,9.15
2017-11-18T01:52:48.868Z,7.93
2017-11-18T01:55:16.999Z,6.47
2017-11-18T01:57:45.150Z,4.35
2017-11-18T02:00:13.276Z,7.03
2017-11-18T02:02:43.386Z,10.93
2017-11-18T02:05:11.502Z,6.65
2017-11-18T02:07:39.682Z,7.40
2017-11-18T02:10:07.815Z,7.82
2017-11-18T02:12:35.967Z,4.43
2017-11-18T02:15:04.093Z,5.57
2017-11-18T02:17:32.238Z,3.72
2017-11-18T02:20:00.360Z,6.82
2017-11-18T02:22:28.507Z,6.45
2017-11-18T02:24:56.653Z,10.85
2017-11-18T02:27:24.804Z,8.50
2017-11-18T02:29:53.694Z,6.32
2017-11-18T02:32:21.855Z,4.97
2017-11-18T02:34:50.752Z,9.85
2017-11-18T02:37:18.902Z,5.72
2017-11-18T02:39:47.027Z,7.12
2017-11-18T02:42:15.181Z,8.05
2017-11-18T02:44:43.311Z,5.00
2017-11-18T02:47:11.454Z,7.50
2017-11-18T02:49:39.585Z,4.70
2017-11-18T02:52:08.503Z,5.97
2017-11-18T02:54:36.626Z,5.00
2017-11-18T02:57:04.779Z,4.18
2017-11-18T02:59:32.909Z,5.35
2017-11-18T03:02:01.060Z,7.18
2017-11-18T03:04:29.183Z,9.15
2017-11-18T03:06:57.336Z,5.93
2017-11-18T03:09:25.472Z,7.12
2017-11-18T03:11:53.628Z,5.78
2017-11-18T03:14:21.752Z,7.10
2017-11-18T03:16:49.891Z,8.40
2017-11-18T03:19:18.052Z,3.65
2017-11-18T03:21:46.171Z,7.20
2017-11-18T03:24:14.332Z,6.07
2017-11-18T03:26:42.457Z,7.75
2017-11-18T03:29:10.596Z,9.43
2017-11-18T03:31:38.718Z,3.70
2017-11-18T03:34:06.865Z,6.78
2017-11-18T03:36:34.991Z,7.35
2017-11-18T03:39:03.138Z,3.65
2017-11-18T03:41:31.259Z,4.12
2017-11-18T03:43:59.415Z,9.68
2017-11-18T03:46:27.536Z,5.97
2017-11-18T03:48:55.682Z,8.15
2017-11-18T03:51:23.809Z,6.28
2017-11-18T03:53:51.959Z,7.65
2017-11-18T03:56:20.078Z,6.20
2017-11-18T03:58:48.231Z,9.52
2017-11-18T04:01:16.356Z,8.25
2017-11-18T04:03:44.505Z,7.72
2017-11-18T04:06:13.400Z,7.05
2017-11-18T04:08:41.542Z,9.70
2017-11-18T04:11:09.667Z,5.78
2017-11-18T04:13:37.807Z,5.97
2017-11-18T04:16:05.932Z,4.20
2017-11-18T04:18:34.079Z,8.98
2017-11-18T04:21:02.212Z,9.80
2017-11-18T04:23:30.377Z,5.37
2017-11-18T04:25:58.495Z,6.87
2017-11-18T04:28:26.647Z,6.97
2017-11-18T04:30:54.771Z,4.15
2017-11-18T04:33:22.916Z,8.55
2017-11-18T04:35:51.048Z,5.78
2017-11-18T04:38:19.165Z,9.82
2017-11-18T04:40:47.321Z,5.97
2017-11-18T04:43:15.460Z,8.27
2017-11-18T04:45:43.607Z,6.45
2017-11-18T04:48:11.734Z,8.75
2017-11-18T04:50:39.883Z,7.45
2017-11-18T04:53:08.002Z,7.20
2017-11-18T04:55:36.146Z,6.57
2017-11-18T04:58:04.267Z,9.25
2017-11-18T05:00:32.421Z,16.12
2017-11-18T05:03:00.543Z,7.95
2017-11-18T05:05:28.687Z,7.70
2017-11-18T05:07:56.814Z,11.32
2017-11-18T05:10:25.727Z,6.05
2017-11-18T05:12:53.860Z,8.70
2017-11-18T05:15:22.012Z,8.10
2017-11-18T05:17:50.135Z,10.07
2017-11-18T05:20:18.286Z,9.38
2017-11-18T05:22:46.415Z,9.65
2017-11-18T05:25:14.555Z,4.32
2017-11-18T05:27:43.452Z,12.07
2017-11-18T05:30:11.602Z,7.57
2017-11-18T05:32:39.741Z,13.70
2017-11-18T05:35:07.894Z,6.97
2017-11-18T05:37:36.024Z,8.98
2017-11-18T05:40:04.175Z,11.48
2017-11-18T05:42:32.296Z,10.18
2017-11-18T05:45:00.444Z,6.95
2017-11-18T05:47:28.564Z,9.25
2017-11-18T05:49:56.716Z,6.43
2017-11-18T05:52:24.842Z,10.75
2017-11-18T05:54:52.996Z,9.20
2017-11-18T05:57:21.121Z,6.47
2017-11-18T05:59:49.267Z,5.35
2017-11-18T06:02:17.400Z,5.20
2017-11-18T06:04:45.550Z,8.15
2017-11-18T06:07:13.696Z,8.50
2017-11-18T06:09:41.818Z,6.45
2017-11-18T06:12:09.964Z,4.87
2017-11-18T06:14:38.091Z,9.95
2017-11-18T06:17:06.239Z,13.73
2017-11-18T06:19:34.366Z,14.35
2017-11-18T06:22:02.524Z,9.48
2017-11-18T06:24:30.639Z,7.37
2017-11-18T06:26:58.805Z,8.35
2017-11-18T06:29:27.700Z,12.80
2017-11-18T06:31:55.856Z,8.48
2017-11-18T06:34:24.751Z,7.53
2017-11-18T06:36:52.939Z,9.35
2017-11-18T06:39:21.068Z,6.43
2017-11-18T06:41:49.222Z,6.28
2017-11-18T06:44:17.352Z,7.37
2017-11-18T06:46:45.520Z,9.75
2017-11-18T06:49:14.418Z,10.40
2017-11-18T06:51:42.596Z,6.95
2017-11-18T06:54:10.733Z,10.15
2017-11-18T06:56:38.894Z,10.35
2017-11-18T06:59:07.021Z,4.95
2017-11-18T07:01:35.171Z,7.32
2017-11-18T07:04:04.059Z,8.55
2017-11-18T07:06:32.228Z,10.50
2017-11-18T07:09:00.363Z,6.78
2017-11-18T07:11:28.518Z,10.95
2017-11-18T07:13:56.641Z,10.82
2017-11-18T07:16:24.831Z,10.63
2017-11-18T07:18:53.729Z,8.80
2017-11-18T07:21:21.857Z,7.82
2017-11-18T07:23:50.008Z,6.82
2017-11-18T07:26:18.167Z,9.60
2017-11-18T07:28:46.319Z,8.93
2017-11-18T07:31:14.444Z,14.48
2017-11-18T07:33:42.606Z,6.18
2017-11-18T07:36:10.740Z,12.40
2017-11-18T07:38:38.900Z,5.82
2017-11-18T07:41:07.024Z,11.43
2017-11-18T07:43:35.200Z,10.23
2017-11-18T07:46:03.355Z,9.23
2017-11-18T07:48:31.516Z,8.95
2017-11-18T07:50:59.646Z,7.40
2017-11-18T07:53:27.810Z,10.23
2017-11-18T07:55:55.935Z,8.60
2017-11-18T07:58:24.096Z,10.00
2017-11-18T08:00:52.219Z,8.80
2017-11-18T08:03:20.364Z,8.05
2017-11-18T08:05:48.590Z,11.98
2017-11-18T08:08:16.962Z,8.73
2017-11-18T08:10:45.143Z,5.40
2017-11-18T08:13:13.373Z,12.80
2017-11-18T08:15:41.571Z,7.50
2017-11-18T08:18:09.747Z,10.85
2017-11-18T08:20:37.882Z,13.73
2017-11-18T08:23:06.027Z,9.15
2017-11-18T08:25:34.171Z,6.60
2017-11-18T08:28:02.384Z,7.97
2017-11-18T08:30:30.513Z,7.50
2017-11-18T08:32:58.731Z,9.63
2017-11-18T08:35:27.676Z,8.95
2017-11-18T08:37:55.835Z,5.35
2017-11-18T08:40:23.993Z,6.68
2017-11-18T08:42:52.181Z,9.23
2017-11-18T08:45:20.321Z,9.30
2017-11-18T08:47:49.262Z,9.50
2017-11-18T08:50:17.404Z,12.75
2017-11-18T08:52:45.538Z,7.75
2017-11-18T08:55:13.708Z,9.63
2017-11-18T08:57:41.872Z,14.75
2017-11-18T09:00:10.043Z,8.13
2017-11-18T09:02:38.178Z,11.90
2017-11-18T09:05:06.330Z,13.48
2017-11-18T09:07:34.519Z,6.05
2017-11-18T09:10:02.668Z,8.35
2017-11-18T09:12:30.803Z,11.80
2017-11-18T09:14:58.965Z,7.00
2017-11-18T09:17:27.106Z,8.30
2017-11-18T09:19:55.325Z,9.35
2017-11-18T09:22:23.453Z,14.50
2017-11-18T09:24:51.623Z,8.90
2017-11-18T09:27:20.508Z,9.95
2017-11-18T09:29:48.663Z,7.60
2017-11-18T09:32:17.833Z,9.55
2017-11-18T09:34:45.978Z,9.15
2017-11-18T09:37:14.108Z,19.55
2017-11-18T09:39:42.267Z,9.15
2017-11-18T09:42:10.397Z,7.95
2017-11-18T09:44:38.552Z,10.85
2017-11-18T09:47:06.670Z,10.82
2017-11-18T09:49:34.827Z,17.95
2017-11-18T09:52:02.957Z,8.57
2017-11-18T09:54:31.115Z,8.05
2017-11-18T09:56:59.241Z,9.35
2017-11-18T09:59:27.391Z,9.90
2017-11-18T10:01:56.282Z,7.15
2017-11-18T10:04:24.456Z,7.25
2017-11-18T10:06:53.351Z,7.20
2017-11-18T10:09:21.477Z,12.10
2017-11-18T10:11:49.626Z,7.57
2017-11-18T10:14:17.750Z,10.05
2017-11-18T10:16:45.912Z,8.50
2017-11-18T10:19:14.042Z,9.23
2017-11-18T10:21:42.208Z,6.30
2017-11-18T10:24:10.331Z,10.55
2017-11-18T10:26:38.479Z,9.20
2017-11-18T10:29:06.621Z,9.50
2017-11-18T10:31:34.776Z,7.32
2017-11-18T10:34:03.662Z,7.85
2017-11-18T10:36:31.816Z,7.50
2017-11-18T10:38:59.952Z,18.12
2017-11-18T10:41:28.132Z,22.95
2017-11-18T10:43:56.264Z,8.77
2017-11-18T10:46:24.439Z,11.75
2017-11-18T10:48:53.335Z,6.87
2017-11-18T10:51:21.539Z,8.82
2017-11-18T10:53:49.678Z,8.45
2017-11-18T10:56:17.827Z,8.45
2017-11-18T10:58:45.943Z,6.95
2017-11-18T11:01:14.101Z,7.95
2017-11-18T11:03:42.991Z,7.65
2017-11-18T11:06:11.144Z,9.52
2017-11-18T11:08:39.267Z,7.43
2017-11-18T11:11:07.414Z,6.32
2017-11-18T11:13:35.542Z,7.43
2017-11-18T11:16:03.696Z,7.07
2017-11-18T11:18:31.843Z,7.30
2017-11-18T11:21:00.006Z,7.78
2017-11-18T11:23:28.133Z,9.93
2017-11-18T11:25:56.303Z,7.30
2017-11-18T11:28:24.439Z,5.95
2017-11-18T11:30:52.566Z,9.02
2017-11-18T11:33:20.799Z,4.82
2017-11-18T11:35:48.934Z,10.05
2017-11-18T11:38:17.862Z,7.28
2017-11-18T11:40:46.001Z,7.25
2017-11-18T11:43:14.909Z,6.90
2017-11-18T11:45:43.049Z,15.85
2017-11-18T11:48:11.199Z,4.95
2017-11-18T11:50:39.319Z,6.22
2017-11-18T11:53:07.478Z,9.02
2017-11-18T11:55:35.606Z,12.18
2017-11-18T11:58:03.755Z,9.45
2017-11-18T12:00:31.885Z,7.37
2017-11-18T12:03:00.036Z,6.97
2017-11-18T12:05:28.187Z,11.77
2017-11-18T12:07:56.338Z,8.40
2017-11-18T12:10:24.480Z,7.53
2017-11-18T12:12:52.672Z,15.73
2017-11-18T12:15:20.824Z,9.82
2017-11-18T12:17:48.961Z,9.93
2017-11-18T12:20:17.117Z,8.65
2017-11-18T12:22:45.275Z,7.47
2017-11-18T12:25:13.447Z,13.65
2017-11-18T12:27:42.357Z,15.98
2017-11-18T12:30:10.548Z,8.88
2017-11-18T12:32:38.687Z,12.63
2017-11-18T12:35:06.870Z,11.95
2017-11-18T12:37:35.007Z,11.20
2017-11-18T12:40:03.209Z,9.70
2017-11-18T12:42:31.344Z,7.82
2017-11-18T12:44:59.496Z,9.02
2017-11-18T12:47:27.623Z,4.65
2017-11-18T12:49:56.540Z,7.43
2017-11-18T12:52:24.751Z,4.93
2017-11-18T12:54:52.901Z,3.50
2017-11-18T12:57:21.069Z,4.87
2017-11-18T12:59:49.224Z,1.80
2017-11-18T13:02:17.396Z,1.73
2017-11-18T13:04:45.521Z,2.45
2017-11-18T13:07:13.684Z,1.10
2017-11-18T13:09:41.813Z,2.72
2017-11-18T13:12:09.964Z,0.80
2017-11-18T13:14:38.114Z,0.90
2017-11-18T13:17:06.277Z,4.80
2017-11-18T13:19:34.423Z,0.60
2017-11-18T13:22:02.544Z,0.70
2017-11-18T13:24:30.695Z,1.42
2017-11-18T13:26:58.826Z,1.52
2017-11-18T13:29:26.994Z,2.40
2017-11-18T13:31:55.896Z,2.17
2017-11-18T13:34:24.052Z,0.50
2017-11-18T13:36:52.997Z,0.40
2017-11-18T13:39:21.189Z,0.50
2017-11-18T13:41:49.323Z,0.50
2017-11-18T13:44:17.488Z,0.50
2017-11-18T13:46:45.613Z,1.00
2017-11-18T13:49:13.756Z,0.62
2017-11-18T13:51:42.002Z,0.55
2017-11-18T13:54:10.142Z,0.50
2017-11-18T13:56:38.271Z,0.50
2017-11-18T13:59:06.419Z,4.43
2017-11-18T14:01:34.578Z,0.47
2017-11-18T14:04:02.756Z,1.02
2017-11-18T14:06:31.639Z,0.70
2017-11-18T14:08:59.788Z,0.62
2017-11-18T14:11:27.917Z,1.60
2017-11-18T14:13:56.065Z,1.02
2017-11-18T14:16:24.197Z,1.42
2017-11-18T14:18:52.319Z,0.70
2017-11-18T14:21:20.461Z,0.60
2017-11-18T14:23:48.582Z,0.60
2017-11-18T14:26:16.732Z,0.55
2017-11-18T14:28:44.851Z,1.85
2017-11-18T14:31:12.999Z,2.28
2017-11-18T14:33:41.115Z,0.60
2017-11-18T14:36:09.273Z,0.80
2017-11-18T14:38:37.431Z,2.03
2017-11-18T14:41:05.578Z,0.52
2017-11-18T14:43:33.715Z,1.02
2017-11-18T14:46:01.880Z,1.05
2017-11-18T14:48:30.008Z,0.77
2017-11-18T14:50:58.156Z,1.08
2017-11-18T14:53:26.284Z,2.50
2017-11-18T14:55:54.453Z,0.68
2017-11-18T14:58:22.578Z,1.15
2017-11-18T15:00:50.746Z,1.15
2017-11-18T15:03:18.867Z,0.60
2017-11-18T15:05:47.023Z,1.02
2017-11-18T15:08:15.696Z,1.85
2017-11-18T15:10:43.854Z,1.75
2017-11-18T15:13:11.980Z,1.35
2017-11-18T15:15:45.814Z,0.90
2017-11-18T15:18:19.652Z,1.02
2017-11-18T15:20:54.238Z,1.67
2017-11-18T15:23:28.043Z,4.32
2017-11-18T15:26:01.819Z,1.52
2017-11-18T15:31:51.382Z,1.40
2017-11-18T15:34:37.200Z,3.05
2017-11-18T15:37:15.237Z,2.92
2017-11-18T15:39:43.390Z,1.10
2017-11-18T15:42:11.527Z,1.40
2017-11-18T15:44:45.446Z,1.20
2017-11-18T15:47:30.279Z,2.08
2017-11-18T15:50:08.377Z,1.75
2017-11-18T15:52:37.959Z,2.83
2017-11-18T15:55:20.665Z,2.25
2017-11-18T15:57:49.275Z,1.77
2017-11-18T16:00:18.259Z,6.47
2017-11-18T16:02:46.385Z,2.08
2017-11-18T16:05:29.444Z,2.03
2017-11-18T16:08:08.377Z,3.67
2017-11-18T16:10:36.544Z,2.35
2017-11-18T16:13:04.674Z,1.25
2017-11-18T16:15:32.796Z,1.67
2017-11-18T16:18:00.969Z,1.87
2017-11-18T16:20:29.091Z,1.30
2017-11-18T16:22:58.017Z,1.50
2017-11-18T16:25:26.155Z,5.93
2017-11-18T16:27:55.068Z,4.03
2017-11-18T16:30:23.208Z,1.90
2017-11-18T16:32:52.180Z,4.45
2017-11-18T16:35:20.319Z,3.10
2017-11-18T16:37:48.501Z,3.72
2017-11-18T16:40:16.641Z,3.47
2017-11-18T16:42:44.796Z,2.12
2017-11-18T16:45:13.686Z,1.90
2017-11-18T16:47:41.841Z,2.05
2017-11-18T16:50:09.961Z,3.50
2017-11-18T16:52:38.123Z,4.62
2017-11-18T16:55:06.252Z,3.10
2017-11-18T16:57:35.911Z,2.83
2017-11-18T17:00:04.040Z,6.62
2017-11-18T17:02:32.210Z,13.25
2017-11-18T17:05:00.346Z,3.08
2017-11-18T17:07:28.494Z,5.60
2017-11-18T17:09:56.662Z,4.75
2017-11-18T17:12:25.570Z,4.45
2017-11-18T17:14:53.685Z,4.35
2017-11-18T17:17:21.847Z,8.07
2017-11-18T17:19:49.972Z,4.72
2017-11-18T17:22:18.124Z,6.18
2017-11-18T17:24:46.254Z,4.97
2017-11-18T17:27:14.382Z,11.73
2017-11-18T17:29:43.302Z,6.53
2017-11-18T17:32:11.431Z,10.07
2017-11-18T17:34:39.590Z,7.85
2017-11-18T17:37:07.711Z,6.28
2017-11-18T17:39:35.865Z,6.20
2017-11-18T17:42:03.991Z,7.18
2017-11-18T17:44:32.213Z,4.55
2017-11-18T17:47:00.340Z,4.60
2017-11-18T17:49:28.507Z,10.07
2017-11-18T17:51:56.633Z,7.25
2017-11-18T17:54:25.550Z,6.53
2017-11-18T17:56:53.691Z,8.23
2017-11-18T17:59:22.665Z,7.10
2017-11-18T18:01:50.798Z,5.97
2017-11-18T18:04:18.983Z,9.35
2017-11-18T18:06:47.119Z,9.25
2017-11-18T18:09:15.361Z,12.05
2017-11-18T18:11:43.492Z,6.10
2017-11-18T18:14:11.654Z,6.85
2017-11-18T18:16:39.829Z,11.43
2017-11-18T18:19:08.115Z,7.32
2017-11-18T18:21:36.344Z,8.75
2017-11-18T18:24:04.487Z,9.95
2017-11-18T18:26:32.619Z,17.02
2017-11-18T18:29:00.811Z,8.38
2017-11-18T18:31:29.036Z,9.18
2017-11-18T18:33:57.196Z,13.85
2017-11-18T18:36:25.364Z,14.00
2017-11-18T18:38:53.525Z,10.50
2017-11-18T18:41:21.683Z,18.12
2017-11-18T18:43:49.838Z,11.68
2017-11-18T18:46:18.125Z,10.50
2017-11-18T18:48:47.156Z,12.55
2017-11-18T18:51:15.290Z,8.05
2017-11-18T18:53:43.447Z,8.63
2017-11-18T18:56:11.582Z,9.68
2017-11-18T18:58:39.714Z,9.93
2017-11-18T19:01:07.866Z,9.50
2017-11-18T19:03:36.751Z,12.73
2017-11-18T19:06:04.906Z,15.30
2017-11-18T19:08:33.029Z,7.03
2017-11-18T19:11:01.181Z,11.15
2017-11-18T19:13:29.324Z,9.85
2017-11-18T19:15:57.502Z,10.70
2017-11-18T19:18:25.623Z,5.85
2017-11-18T19:20:53.766Z,7.78
2017-11-18T19:23:21.887Z,15.70
2017-11-18T19:25:50.040Z,10.07
2017-11-18T19:28:18.161Z,9.55
2017-11-18T19:30:46.310Z,10.05
2017-11-18T19:33:14.435Z,13.65
2017-11-18T19:35:43.350Z,13.85
2017-11-18T19:38:11.474Z,10.45
2017-11-18T19:40:39.730Z,13.95
2017-11-18T19:43:07.875Z,6.45
2017-11-18T19:45:36.015Z,12.70
2017-11-18T19:48:04.166Z,11.38
2017-11-18T19:50:32.295Z,10.60
2017-11-18T19:53:00.442Z,8.70
2017-11-18T19:55:29.345Z,4.78
2017-11-18T19:57:57.509Z,15.00
2017-11-18T20:00:26.398Z,10.13
2017-11-18T20:02:54.542Z,13.23
2017-11-18T20:05:22.666Z,8.07
2017-11-18T20:07:50.810Z,9.43
2017-11-18T20:10:18.944Z,15.88
2017-11-18T20:12:47.111Z,7.82
2017-11-18T20:15:15.242Z,9.25
2017-11-18T20:17:44.127Z,7.03
2017-11-18T20:20:12.280Z,5.70
2017-11-18T20:22:40.408Z,11.00
2017-11-18T20:25:08.578Z,5.45
2017-11-18T20:27:36.699Z,11.70
2017-11-18T20:30:04.849Z,9.18
2017-11-18T20:32:32.967Z,11.70
2017-11-18T20:35:01.891Z,7.60
2017-11-18T20:37:30.026Z,11.50
2017-11-18T20:39:58.949Z,9.32
2017-11-18T20:42:27.070Z,10.57
2017-11-18T20:44:55.259Z,8.15
2017-11-18T20:47:23.383Z,7.12
2017-11-18T20:49:51.532Z,5.87
2017-11-18T20:52:19.649Z,8.07
2017-11-18T20:54:47.800Z,9.73
2017-11-18T20:57:15.919Z,7.15
2017-11-18T20:59:44.085Z,5.78
2017-11-18T21:02:12.223Z,10.70
2017-11-18T21:04:40.366Z,12.75
2017-11-18T21:07:08.495Z,11.60
2017-11-18T21:09:36.647Z,13.55
2017-11-18T21:12:04.780Z,10.07
2017-11-18T21:14:32.930Z,10.13
2017-11-18T21:17:01.827Z,11.80
2017-11-18T21:19:29.975Z,11.82
2017-11-18T21:21:58.107Z,12.05
2017-11-18T21:24:26.259Z,13.88
2017-11-18T21:26:54.387Z,9.32
2017-11-18T21:29:22.525Z,7.00
2017-11-18T21:31:50.657Z,8.30
2017-11-18T21:34:18.802Z,11.00
2017-11-18T21:36:46.924Z,5.28
2017-11-18T21:39:15.077Z,6.28
2017-11-18T21:41:43.210Z,9.68
2017-11-18T21:44:11.389Z,13.48
2017-11-18T21:46:39.534Z,11.57
2017-11-18T21:49:07.688Z,7.00
2017-11-18T21:51:35.819Z,7.68
2017-11-18T21:54:03.967Z,10.57
2017-11-18T21:56:32.105Z,9.60
2017-11-18T21:59:00.269Z,6.57
2017-11-18T22:01:28.403Z,5.75
2017-11-18T22:03:56.560Z,9.73
2017-11-18T22:06:24.686Z,5.00
2017-11-18T22:08:52.991Z,7.87
2017-11-18T22:11:21.143Z,9.05
2017-11-18T22:13:49.312Z,9.38
2017-11-18T22:16:17.446Z,10.45
2017-11-18T22:18:45.616Z,5.45
2017-11-18T22:21:13.750Z,12.45
2017-11-18T22:23:41.925Z,10.80
2017-11-18T22:26:10.073Z,8.02
2017-11-18T22:28:38.250Z,5.80
2017-11-18T22:31:06.369Z,7.45
2017-11-18T22:33:34.515Z,8.88
2017-11-18T22:36:02.641Z,9.10
2017-11-18T22:38:30.778Z,10.52
2017-11-18T22:40:58.926Z,9.05
2017-11-18T22:43:27.068Z,10.82
2017-11-18T22:45:55.237Z,12.65
2017-11-18T22:48:23.358Z,11.88
2017-11-18T22:50:51.509Z,7.50
2017-11-18T22:53:19.631Z,7.68
2017-11-18T22:55:47.787Z,8.65
2017-11-18T22:58:15.914Z,7.43
2017-11-18T23:00:44.063Z,10.18
2017-11-18T23:03:12.181Z,9.68
2017-11-18T23:05:40.325Z,7.53
2017-11-18T23:08:08.452Z,5.20
2017-11-18T23:10:36.616Z,7.53
2017-11-18T23:13:05.495Z,9.45
2017-11-18T23:15:33.634Z,9.50
2017-11-18T23:18:01.755Z,5.95
2017-11-18T23:20:29.902Z,8.63
2017-11-18T23:22:58.017Z,6.70
2017-11-18T23:25:26.168Z,6.60
2017-11-18T23:27:54.291Z,8.77
2017-11-18T23:30:22.455Z,11.63
2017-11-18T23:32:50.578Z,6.25
2017-11-18T23:35:18.698Z,3.92
2017-11-18T23:37:46.856Z,7.70
2017-11-18T23:40:14.978Z,4.93
2017-11-18T23:42:43.122Z,5.57
2017-11-18T23:45:11.264Z,4.68
2017-11-18T23:47:39.407Z,3.12
2017-11-18T23:50:07.522Z,4.90
2017-11-18T23:52:35.672Z,4.43
2017-11-18T23:55:04.560Z,4.85
2017-11-18T23:57:32.710Z,4.20
